Wetterdaten: Woche 08.09.14 - 14.09.14 (KW37)
Datum Zeit Temp. A. Feuchte A. Luftdruck Regen Wind Richtung Sonnenschein ET UV Solar Taupunkt Windchill Windben Empfang
08.09.2014 00:00 14,9 C 91 % 1013,0 hPa 0,0 l/m 0,0 km/h (0 Bft) N 0,00 h 0,000 mm 0,0 UV-I 0 W/m 13,5 C 14,9 C 0,0 km/h (0 Bft) 0,00 %
08.09.2014 01:00 14,6 C 92 % 1012,9 hPa 0,0 l/m 0,0 km/h (0 Bft) N 0,00 h 0,000 mm 0,0 UV-I 0 W/m 13,4 C 14,6 C 0,0 km/h (0 Bft) 0,00 %
08.09.2014 02:00 14,0 C 95 % 1013,3 hPa 0,0 l/m 0,0 km/h (0 Bft) N 0,00 h 0,000 mm 0,0 UV-I 0 W/m 13,3 C 14,0 C 0,0 km/h (0 Bft) 0,00 %
08.09.2014 03:00 13,7 C 98 % 1013,5 hPa 0,0 l/m 0,0 km/h (0 Bft) N 0,00 h 0,000 mm 0,0 UV-I 0 W/m 13,3 C 13,7 C 0,0 km/h (0 Bft) 0,00 %
08.09.2014 04:00 13,5 C 99 % 1013,5 hPa 0,0 l/m 0,0 km/h (0 Bft) N 0,00 h 0,000 mm 0,0 UV-I 0 W/m 13,3 C 13,5 C 0,0 km/h (0 Bft) 0,00 %
08.09.2014 05:00 13,1 C 99 % 1013,7 hPa 0,0 l/m 0,0 km/h (0 Bft) N 0,00 h 0,000 mm 0,0 UV-I 0 W/m 13,0 C 13,1 C 0,0 km/h (0 Bft) 0,00 %
08.09.2014 06:00 13,0 C 99 % 1013,9 hPa 0,0 l/m 0,0 km/h (0 Bft) N 0,00 h 0,000 mm 1,0 UV-I 8 W/m 12,8 C 13,0 C 0,0 km/h (0 Bft) 0,00 %
08.09.2014 07:00 12,8 C 99 % 1014,3 hPa 0,0 l/m 0,0 km/h (0 Bft) N 0,25 h 0,000 mm 1,0 UV-I 70 W/m 12,6 C 12,8 C 0,0 km/h (0 Bft) 0,00 %
08.09.2014 08:00 14,3 C 99 % 1014,3 hPa 0,0 l/m 0,0 km/h (0 Bft) N 0,50 h 0,000 mm 2,0 UV-I 166 W/m 14,0 C 14,3 C 1,0 km/h (0 Bft) 0,00 %
08.09.2014 09:00 15,2 C 95 % 1014,4 hPa 0,0 l/m 0,6 km/h (0 Bft) NO 0,25 h 0,000 mm 2,7 UV-I 223 W/m 14,4 C 15,2 C 3,0 km/h (1 Bft) 0,00 %
08.09.2014 10:00 17,1 C 83 % 1014,2 hPa 0,0 l/m 1,3 km/h (1 Bft) NO 0,25 h 0,000 mm 5,0 UV-I 341 W/m 14,2 C 17,1 C 4,0 km/h (1 Bft) 0,00 %
08.09.2014 11:00 20,9 C 69 % 1013,6 hPa 0,0 l/m 1,2 km/h (1 Bft) N-NO 1,00 h 0,000 mm 6,0 UV-I 483 W/m 14,9 C 20,9 C 4,9 km/h (1 Bft) 0,00 %
08.09.2014 12:00 23,2 C 59 % 1012,9 hPa 0,0 l/m 2,1 km/h (1 Bft) NW 1,00 h 0,000 mm 6,3 UV-I 597 W/m 14,7 C 23,2 C 1,0 km/h (0 Bft) 0,00 %
08.09.2014 13:00 26,5 C 54 % 1012,0 hPa 0,0 l/m 0,5 km/h (0 Bft) O 1,00 h 0,000 mm 6,0 UV-I 683 W/m 16,5 C 26,5 C 2,0 km/h (1 Bft) 0,00 %
08.09.2014 14:00 26,8 C 47 % 1011,3 hPa 0,0 l/m 0,4 km/h (0 Bft) N 1,00 h 0,000 mm 3,7 UV-I 743 W/m 14,3 C 26,8 C 2,0 km/h (1 Bft) 0,00 %
08.09.2014 15:00 27,8 C 48 % 1010,9 hPa 0,3 l/m 0,2 km/h (0 Bft) N 0,75 h 0,000 mm 1,0 UV-I 520 W/m 15,5 C 27,8 C 0,0 km/h (0 Bft) 0,00 %
08.09.2014 16:00 23,7 C 58 % 1011,3 hPa 0,9 l/m 0,0 km/h (0 Bft) N 0,00 h 0,000 mm 2,0 UV-I 56 W/m 14,9 C 23,7 C 1,0 km/h (0 Bft) 0,00 %
08.09.2014 17:00 26,6 C 44 % 1010,4 hPa 0,3 l/m 0,4 km/h (0 Bft) S 1,00 h 0,000 mm 1,0 UV-I 574 W/m 13,2 C 26,6 C 0,0 km/h (0 Bft) 0,00 %
08.09.2014 18:00 25,5 C 51 % 1010,8 hPa 0,0 l/m 0,0 km/h (0 Bft) N 1,00 h 0,000 mm 0,0 UV-I 279 W/m 14,3 C 25,5 C 0,0 km/h (0 Bft) 0,00 %
08.09.2014 19:00 20,5 C 70 % 1011,9 hPa 0,0 l/m 0,0 km/h (0 Bft) N 0,50 h 0,000 mm 0,0 UV-I 22 W/m 14,8 C 20,5 C 0,0 km/h (0 Bft) 0,00 %
08.09.2014 20:00 17,9 C 78 % 1012,7 hPa 0,0 l/m 0,0 km/h (0 Bft) N 0,00 h 0,000 mm 0,0 UV-I 0 W/m 13,9 C 17,9 C 0,0 km/h (0 Bft) 0,00 %
08.09.2014 21:00 16,5 C 85 % 1013,3 hPa 0,0 l/m 0,0 km/h (0 Bft) N 0,00 h 0,000 mm 0,0 UV-I 0 W/m 13,9 C 16,5 C 0,0 km/h (0 Bft) 0,00 %
08.09.2014 22:00 16,1 C 88 % 1013,5 hPa 0,0 l/m 0,0 km/h (0 Bft) N 0,00 h 0,000 mm 0,0 UV-I 0 W/m 14,0 C 16,1 C 0,0 km/h (0 Bft) 0,00 %
08.09.2014 23:00 15,4 C 91 % 1013,8 hPa 0,0 l/m 0,0 km/h (0 Bft) N 0,00 h 0,000 mm 0,0 UV-I 0 W/m 13,8 C 15,4 C 0,0 km/h (0 Bft) 0,00 %
09.09.2014 00:00 14,6 C 93 % 1013,9 hPa 0,0 l/m 0,0 km/h (0 Bft) N 0,00 h 0,000 mm 0,0 UV-I 0 W/m 13,6 C 14,6 C 0,0 km/h (0 Bft) 0,00 %
09.09.2014 01:00 14,5 C 95 % 1013,7 hPa 0,0 l/m 0,0 km/h (0 Bft) N 0,00 h 0,000 mm 0,0 UV-I 0 W/m 13,6 C 14,5 C 0,0 km/h (0 Bft) 0,00 %
09.09.2014 02:00 14,0 C 95 % 1013,8 hPa 0,0 l/m 0,0 km/h (0 Bft) N 0,00 h 0,000 mm 0,0 UV-I 0 W/m 13,3 C 14,0 C 0,0 km/h (0 Bft) 0,00 %
09.09.2014 03:00 14,1 C 95 % 1013,9 hPa 0,0 l/m 0,0 km/h (0 Bft) W-SW 0,00 h 0,000 mm 0,0 UV-I 0 W/m 13,4 C 14,1 C 2,0 km/h (1 Bft) 0,00 %
09.09.2014 04:00 14,8 C 94 % 1013,5 hPa 3,6 l/m 1,5 km/h (1 Bft) N 0,00 h 0,000 mm 0,0 UV-I 0 W/m 13,8 C 14,8 C 0,0 km/h (0 Bft) 0,00 %
09.09.2014 05:00 14,5 C 96 % 1013,8 hPa 0,0 l/m 0,0 km/h (0 Bft) N 0,00 h 0,000 mm 0,0 UV-I 0 W/m 13,9 C 14,5 C 0,0 km/h (0 Bft) 0,00 %
09.09.2014 06:00 14,3 C 97 % 1014,4 hPa 0,0 l/m 0,0 km/h (0 Bft) N 0,25 h 0,000 mm 1,0 UV-I 16 W/m 13,8 C 14,3 C 0,0 km/h (0 Bft) 0,00 %
09.09.2014 07:00 15,1 C 96 % 1013,9 hPa 1,2 l/m 0,0 km/h (0 Bft) N 0,25 h 0,000 mm 1,0 UV-I 48 W/m 14,4 C 15,1 C 0,0 km/h (0 Bft) 0,00 %
09.09.2014 08:00 16,3 C 91 % 1014,1 hPa 0,0 l/m 0,0 km/h (0 Bft) N 0,00 h 0,000 mm 1,7 UV-I 130 W/m 14,9 C 16,3 C 0,0 km/h (0 Bft) 0,00 %
09.09.2014 09:00 17,8 C 86 % 1014,1 hPa 0,3 l/m 0,0 km/h (0 Bft) N 0,00 h 0,000 mm 2,3 UV-I 158 W/m 15,4 C 17,8 C 1,0 km/h (0 Bft) 0,00 %
09.09.2014 10:00 18,1 C 85 % 1014,5 hPa 0,0 l/m 0,1 km/h (0 Bft) N 0,25 h 0,000 mm 4,3 UV-I 267 W/m 15,5 C 18,1 C 2,0 km/h (1 Bft) 0,00 %
09.09.2014 11:00 20,5 C 74 % 1014,2 hPa 0,0 l/m 0,8 km/h (0 Bft) SW 0,50 h 0,000 mm 4,7 UV-I 421 W/m 15,6 C 20,5 C 0,0 km/h (0 Bft) 0,00 %
09.09.2014 12:00 20,7 C 71 % 1013,9 hPa 0,0 l/m 0,0 km/h (0 Bft) N 0,00 h 0,000 mm 6,0 UV-I 291 W/m 15,3 C 20,7 C 1,0 km/h (0 Bft) 0,00 %
09.09.2014 13:00 22,3 C 65 % 1012,8 hPa 0,0 l/m 0,2 km/h (0 Bft) N 1,00 h 0,000 mm 4,0 UV-I 704 W/m 15,3 C 22,3 C 2,0 km/h (1 Bft) 0,00 %
09.09.2014 14:00 23,4 C 62 % 1012,2 hPa 0,0 l/m 0,4 km/h (0 Bft) W 0,50 h 0,000 mm 3,0 UV-I 474 W/m 15,6 C 23,4 C 1,0 km/h (0 Bft) 0,00 %
09.09.2014 15:00 22,7 C 63 % 1011,9 hPa 0,0 l/m 0,2 km/h (0 Bft) N 0,25 h 0,000 mm 2,3 UV-I 244 W/m 15,3 C 22,7 C 1,0 km/h (0 Bft) 0,00 %
09.09.2014 16:00 22,7 C 63 % 1011,5 hPa 0,0 l/m 0,0 km/h (0 Bft) N 0,00 h 0,000 mm 1,7 UV-I 163 W/m 15,3 C 22,7 C 1,0 km/h (0 Bft) 0,00 %
09.09.2014 17:00 23,3 C 60 % 1011,0 hPa 0,0 l/m 0,2 km/h (0 Bft) N 1,00 h 0,000 mm 1,0 UV-I 390 W/m 15,0 C 23,3 C 0,0 km/h (0 Bft) 0,00 %
09.09.2014 18:00 21,7 C 66 % 1011,8 hPa 0,0 l/m 0,0 km/h (0 Bft) N 0,25 h 0,000 mm 0,0 UV-I 55 W/m 14,9 C 21,7 C 0,0 km/h (0 Bft) 0,00 %
09.09.2014 19:00 18,9 C 80 % 1012,0 hPa 0,0 l/m 0,0 km/h (0 Bft) N 0,00 h 0,000 mm 0,0 UV-I 0 W/m 15,3 C 18,9 C 0,0 km/h (0 Bft) 0,00 %
09.09.2014 20:00 18,1 C 82 % 1012,6 hPa 0,0 l/m 0,0 km/h (0 Bft) N 0,00 h 0,000 mm 0,0 UV-I 0 W/m 14,9 C 18,1 C 0,0 km/h (0 Bft) 0,00 %
09.09.2014 21:00 17,7 C 84 % 1013,3 hPa 0,0 l/m 0,0 km/h (0 Bft) N 0,00 h 0,000 mm 0,0 UV-I 0 W/m 14,9 C 17,7 C 0,0 km/h (0 Bft) 0,00 %
09.09.2014 22:00 16,8 C 83 % 1013,4 hPa 0,0 l/m 0,0 km/h (0 Bft) N 0,00 h 0,000 mm 0,0 UV-I 0 W/m 13,9 C 16,8 C 1,0 km/h (0 Bft) 0,00 %
09.09.2014 23:00 15,9 C 85 % 1013,8 hPa 0,0 l/m 0,1 km/h (0 Bft) N 0,00 h 0,000 mm 0,0 UV-I 0 W/m 13,4 C 15,9 C 0,0 km/h (0 Bft) 0,00 %
10.09.2014 00:00 15,2 C 88 % 1013,7 hPa 0,0 l/m 0,0 km/h (0 Bft) N 0,00 h 0,000 mm 0,0 UV-I 0 W/m 13,2 C 15,2 C 0,0 km/h (0 Bft) 0,00 %
10.09.2014 01:00 15,0 C 88 % 1013,5 hPa 0,0 l/m 0,0 km/h (0 Bft) N 0,00 h 0,000 mm 0,0 UV-I 0 W/m 12,9 C 15,0 C 0,0 km/h (0 Bft) 0,00 %
10.09.2014 02:00 14,4 C 91 % 1013,7 hPa 0,0 l/m 0,0 km/h (0 Bft) N 0,00 h 0,000 mm 0,0 UV-I 0 W/m 12,9 C 14,4 C 0,0 km/h (0 Bft) 0,00 %
10.09.2014 03:00 13,9 C 93 % 1013,6 hPa 0,0 l/m 0,0 km/h (0 Bft) N 0,00 h 0,000 mm 0,0 UV-I 0 W/m 12,7 C 13,9 C 0,0 km/h (0 Bft) 0,00 %
10.09.2014 04:00 13,1 C 95 % 1013,8 hPa 0,0 l/m 0,0 km/h (0 Bft) N 0,00 h 0,000 mm 0,0 UV-I 0 W/m 12,3 C 13,1 C 0,0 km/h (0 Bft) 0,00 %
10.09.2014 05:00 13,4 C 96 % 1013,6 hPa 0,0 l/m 0,0 km/h (0 Bft) N 0,00 h 0,000 mm 0,0 UV-I 0 W/m 12,8 C 13,4 C 0,0 km/h (0 Bft) 0,00 %
10.09.2014 06:00 13,7 C 97 % 1013,4 hPa 0,0 l/m 0,0 km/h (0 Bft) N 0,00 h 0,000 mm 1,0 UV-I 2 W/m 13,2 C 13,7 C 0,0 km/h (0 Bft) 0,00 %
10.09.2014 07:00 14,6 C 92 % 1013,4 hPa 0,0 l/m 0,0 km/h (0 Bft) N 0,00 h 0,000 mm 1,0 UV-I 71 W/m 13,4 C 14,6 C 0,0 km/h (0 Bft) 0,00 %
10.09.2014 08:00 15,6 C 85 % 1013,1 hPa 0,0 l/m 0,0 km/h (0 Bft) N 0,00 h 0,000 mm 2,7 UV-I 124 W/m 13,2 C 15,6 C 0,0 km/h (0 Bft) 0,00 %
10.09.2014 09:00 17,7 C 75 % 1012,4 hPa 0,0 l/m 0,0 km/h (0 Bft) N 1,00 h 0,000 mm 3,3 UV-I 279 W/m 13,1 C 17,7 C 3,0 km/h (1 Bft) 0,00 %
10.09.2014 10:00 18,5 C 69 % 1012,4 hPa 0,0 l/m 1,1 km/h (1 Bft) O-SO 0,50 h 0,000 mm 3,7 UV-I 345 W/m 12,7 C 18,5 C 2,0 km/h (1 Bft) 0,00 %
10.09.2014 11:00 19,4 C 66 % 1012,2 hPa 0,0 l/m 1,1 km/h (0 Bft) NO 0,50 h 0,000 mm 3,7 UV-I 434 W/m 12,9 C 19,4 C 1,0 km/h (0 Bft) 0,00 %
10.09.2014 12:00 19,8 C 62 % 1011,7 hPa 0,0 l/m 0,1 km/h (0 Bft) N 0,00 h 0,000 mm 4,3 UV-I 263 W/m 12,3 C 19,8 C 2,0 km/h (1 Bft) 0,00 %
10.09.2014 13:00 20,6 C 61 % 1010,9 hPa 0,0 l/m 0,6 km/h (0 Bft) O 0,75 h 0,000 mm 4,3 UV-I 496 W/m 12,7 C 20,6 C 1,0 km/h (0 Bft) 0,00 %
10.09.2014 14:00 20,9 C 58 % 1010,3 hPa 0,0 l/m 0,0 km/h (0 Bft) N 0,75 h 0,000 mm 3,3 UV-I 528 W/m 12,3 C 20,9 C 1,0 km/h (0 Bft) 0,00 %
10.09.2014 15:00 20,6 C 57 % 1009,7 hPa 0,0 l/m 0,8 km/h (0 Bft) O-NO 0,75 h 0,000 mm 2,3 UV-I 330 W/m 11,8 C 20,6 C 3,0 km/h (1 Bft) 0,00 %
10.09.2014 16:00 20,5 C 54 % 1009,5 hPa 0,0 l/m 0,2 km/h (0 Bft) N 0,00 h 0,000 mm 1,0 UV-I 228 W/m 10,9 C 20,5 C 0,0 km/h (0 Bft) 0,00 %
10.09.2014 17:00 20,8 C 57 % 1009,5 hPa 0,0 l/m 0,0 km/h (0 Bft) N 0,50 h 0,000 mm 1,0 UV-I 240 W/m 11,8 C 20,8 C 3,0 km/h (1 Bft) 0,00 %
10.09.2014 18:00 19,3 C 61 % 1010,0 hPa 0,0 l/m 1,8 km/h (1 Bft) O-NO 1,00 h 0,000 mm 0,0 UV-I 90 W/m 11,6 C 19,3 C 2,0 km/h (1 Bft) 0,00 %
10.09.2014 19:00 16,7 C 69 % 1010,6 hPa 0,0 l/m 0,3 km/h (0 Bft) O-SO 0,00 h 0,000 mm 0,0 UV-I 4 W/m 11,0 C 16,7 C 4,0 km/h (1 Bft) 0,00 %
10.09.2014 20:00 16,1 C 71 % 1011,1 hPa 0,0 l/m 2,3 km/h (1 Bft) O 0,00 h 0,000 mm 0,0 UV-I 0 W/m 10,8 C 16,1 C 1,0 km/h (0 Bft) 0,00 %
10.09.2014 21:00 15,3 C 76 % 1011,3 hPa 0,0 l/m 0,0 km/h (0 Bft) N 0,00 h 0,000 mm 0,0 UV-I 0 W/m 10,9 C 15,3 C 0,0 km/h (0 Bft) 0,00 %
10.09.2014 22:00 14,1 C 83 % 1011,4 hPa 0,0 l/m 0,0 km/h (0 Bft) N 0,00 h 0,000 mm 0,0 UV-I 0 W/m 11,3 C 14,1 C 0,0 km/h (0 Bft) 0,00 %
10.09.2014 23:00 13,5 C 86 % 1011,4 hPa 0,0 l/m 0,0 km/h (0 Bft) N 0,00 h 0,000 mm 0,0 UV-I 0 W/m 11,2 C 13,5 C 0,0 km/h (0 Bft) 0,00 %
11.09.2014 00:00 13,5 C 87 % 1011,5 hPa 0,0 l/m 0,0 km/h (0 Bft) N 0,00 h 0,000 mm 0,0 UV-I 0 W/m 11,4 C 13,5 C 0,0 km/h (0 Bft) 0,00 %
11.09.2014 01:00 13,3 C 87 % 1011,4 hPa 0,0 l/m 0,0 km/h (0 Bft) N 0,00 h 0,000 mm 0,0 UV-I 0 W/m 11,1 C 13,3 C 0,0 km/h (0 Bft) 0,00 %
11.09.2014 02:00 12,9 C 87 % 1011,5 hPa 0,0 l/m 0,0 km/h (0 Bft) N 0,00 h 0,000 mm 0,0 UV-I 0 W/m 10,8 C 12,9 C 1,0 km/h (0 Bft) 0,00 %
11.09.2014 03:00 12,6 C 85 % 1011,0 hPa 0,0 l/m 0,2 km/h (0 Bft) N 0,00 h 0,000 mm 0,0 UV-I 0 W/m 10,2 C 12,6 C 0,0 km/h (0 Bft) 0,00 %
11.09.2014 04:00 12,3 C 86 % 1011,0 hPa 0,0 l/m 0,0 km/h (0 Bft) N 0,00 h 0,000 mm 0,0 UV-I 0 W/m 9,9 C 12,3 C 0,0 km/h (0 Bft) 0,00 %
11.09.2014 05:00 12,0 C 86 % 1010,7 hPa 0,0 l/m 0,0 km/h (0 Bft) N 0,00 h 0,000 mm 0,0 UV-I 0 W/m 9,7 C 12,0 C 0,0 km/h (0 Bft) 0,00 %
11.09.2014 06:00 11,9 C 85 % 1010,7 hPa 0,0 l/m 0,0 km/h (0 Bft) N 0,00 h 0,000 mm 1,0 UV-I 0 W/m 9,5 C 11,9 C 0,0 km/h (0 Bft) 0,00 %
11.09.2014 07:00 12,3 C 86 % 1010,9 hPa 0,0 l/m 0,0 km/h (0 Bft) N 0,00 h 0,000 mm 1,0 UV-I 56 W/m 9,9 C 12,3 C 0,0 km/h (0 Bft) 0,00 %
11.09.2014 08:00 13,5 C 80 % 1010,8 hPa 0,0 l/m 0,0 km/h (0 Bft) N 0,00 h 0,000 mm 1,0 UV-I 90 W/m 10,1 C 13,5 C 1,0 km/h (0 Bft) 0,00 %
11.09.2014 09:00 13,6 C 80 % 1010,7 hPa 0,0 l/m 0,3 km/h (0 Bft) N 0,00 h 0,000 mm 1,0 UV-I 94 W/m 10,2 C 13,6 C 1,0 km/h (0 Bft) 0,00 %
11.09.2014 10:00 14,2 C 79 % 1010,8 hPa 0,0 l/m 0,6 km/h (0 Bft) O-NO 0,00 h 0,000 mm 2,3 UV-I 128 W/m 10,6 C 14,2 C 2,0 km/h (1 Bft) 0,00 %
11.09.2014 11:00 14,7 C 76 % 1010,7 hPa 0,0 l/m 0,1 km/h (0 Bft) O 0,00 h 0,000 mm 2,3 UV-I 185 W/m 10,6 C 14,7 C 3,0 km/h (1 Bft) 0,00 %
11.09.2014 12:00 15,1 C 71 % 1010,6 hPa 0,0 l/m 2,5 km/h (1 Bft) N-NO 0,00 h 0,000 mm 1,7 UV-I 217 W/m 9,9 C 15,1 C 4,0 km/h (1 Bft) 0,00 %
11.09.2014 13:00 15,0 C 71 % 1010,7 hPa 0,0 l/m 0,3 km/h (0 Bft) N 0,00 h 0,000 mm 1,0 UV-I 140 W/m 9,9 C 15,0 C 4,0 km/h (1 Bft) 0,00 %
11.09.2014 14:00 14,3 C 75 % 1011,0 hPa 0,0 l/m 0,6 km/h (0 Bft) N 0,00 h 0,000 mm 1,7 UV-I 118 W/m 10,0 C 14,3 C 2,0 km/h (1 Bft) 0,00 %
11.09.2014 15:00 14,5 C 75 % 1010,8 hPa 0,0 l/m 0,2 km/h (0 Bft) N 0,00 h 0,000 mm 1,0 UV-I 152 W/m 10,0 C 14,5 C 2,0 km/h (1 Bft) 0,00 %
11.09.2014 16:00 14,1 C 78 % 1011,0 hPa 0,0 l/m 0,1 km/h (0 Bft) N 0,00 h 0,000 mm 1,0 UV-I 79 W/m 10,3 C 14,1 C 0,0 km/h (0 Bft) 0,00 %
11.09.2014 17:00 13,7 C 82 % 1011,5 hPa 0,0 l/m 0,1 km/h (0 Bft) N 0,00 h 0,000 mm 0,0 UV-I 52 W/m 10,7 C 13,7 C 1,0 km/h (0 Bft) 0,00 %
11.09.2014 18:00 12,9 C 85 % 1011,9 hPa 0,0 l/m 0,0 km/h (0 Bft) N 0,00 h 0,000 mm 0,0 UV-I 12 W/m 10,4 C 12,9 C 0,0 km/h (0 Bft) 0,00 %
11.09.2014 19:00 12,5 C 88 % 1011,6 hPa 0,3 l/m 0,0 km/h (0 Bft) N 0,00 h 0,000 mm 0,0 UV-I 0 W/m 10,6 C 12,5 C 0,0 km/h (0 Bft) 0,00 %
11.09.2014 20:00 12,2 C 91 % 1012,0 hPa 0,0 l/m 0,1 km/h (0 Bft) N 0,00 h 0,000 mm 0,0 UV-I 0 W/m 10,8 C 12,2 C 1,0 km/h (0 Bft) 0,00 %
11.09.2014 21:00 11,6 C 90 % 1012,1 hPa 0,0 l/m 0,0 km/h (0 Bft) N 0,00 h 0,000 mm 0,0 UV-I 0 W/m 10,1 C 11,6 C 2,0 km/h (1 Bft) 0,00 %
11.09.2014 22:00 11,6 C 91 % 1012,0 hPa 0,0 l/m 0,4 km/h (0 Bft) N 0,00 h 0,000 mm 0,0 UV-I 0 W/m 10,2 C 11,6 C 2,0 km/h (1 Bft) 0,00 %
11.09.2014 23:00 11,6 C 91 % 1012,1 hPa 0,3 l/m 0,1 km/h (0 Bft) N 0,00 h 0,000 mm 0,0 UV-I 0 W/m 10,2 C 11,6 C 0,0 km/h (0 Bft) 0,00 %
12.09.2014 00:00 11,5 C 92 % 1011,8 hPa 0,6 l/m 0,0 km/h (0 Bft) N 0,00 h 0,000 mm 0,0 UV-I 0 W/m 10,2 C 11,5 C 1,0 km/h (0 Bft) 0,00 %
12.09.2014 01:00 11,3 C 92 % 1011,7 hPa 0,0 l/m 0,1 km/h (0 Bft) S-SW 0,00 h 0,000 mm 0,0 UV-I 0 W/m 10,0 C 11,3 C 3,0 km/h (1 Bft) 0,00 %
12.09.2014 02:00 11,0 C 92 % 1011,4 hPa 0,9 l/m 1,1 km/h (0 Bft) SW 0,00 h 0,000 mm 0,0 UV-I 0 W/m 9,8 C 11,0 C 5,0 km/h (1 Bft) 0,00 %
12.09.2014 03:00 10,8 C 93 % 1011,2 hPa 1,2 l/m 2,2 km/h (1 Bft) O-SO 0,00 h 0,000 mm 0,0 UV-I 0 W/m 9,7 C 10,8 C 3,0 km/h (1 Bft) 0,00 %
12.09.2014 04:00 10,6 C 93 % 1010,8 hPa 1,8 l/m 0,9 km/h (0 Bft) SO 0,00 h 0,000 mm 0,0 UV-I 0 W/m 9,5 C 10,6 C 3,0 km/h (1 Bft) 0,00 %
12.09.2014 05:00 10,6 C 93 % 1010,4 hPa 1,5 l/m 1,3 km/h (1 Bft) W-SW 0,00 h 0,000 mm 0,0 UV-I 0 W/m 9,5 C 10,6 C 5,0 km/h (1 Bft) 0,00 %
12.09.2014 06:00 10,4 C 92 % 1010,2 hPa 1,5 l/m 1,5 km/h (1 Bft) NO 0,00 h 0,000 mm 0,0 UV-I 0 W/m 9,2 C 10,4 C 4,0 km/h (1 Bft) 0,00 %
12.09.2014 07:00 10,5 C 92 % 1010,2 hPa 0,3 l/m 1,1 km/h (0 Bft) SW 0,00 h 0,000 mm 1,0 UV-I 14 W/m 9,1 C 10,5 C 5,0 km/h (1 Bft) 0,00 %
12.09.2014 08:00 10,7 C 90 % 1010,4 hPa 0,0 l/m 2,8 km/h (1 Bft) W-SW 0,00 h 0,000 mm 1,0 UV-I 57 W/m 9,0 C 10,7 C 6,9 km/h (2 Bft) 0,00 %
12.09.2014 09:00 10,9 C 88 % 1010,8 hPa 0,0 l/m 2,2 km/h (1 Bft) W-SW 0,00 h 0,000 mm 1,7 UV-I 78 W/m 9,0 C 10,9 C 8,9 km/h (2 Bft) 0,00 %
12.09.2014 10:00 11,4 C 88 % 1011,2 hPa 0,6 l/m 3,9 km/h (1 Bft) O 0,00 h 0,000 mm 2,7 UV-I 167 W/m 9,4 C 11,0 C 5,0 km/h (1 Bft) 0,00 %
12.09.2014 11:00 12,3 C 85 % 1011,4 hPa 0,0 l/m 3,5 km/h (1 Bft) O-SO 0,00 h 0,000 mm 3,3 UV-I 200 W/m 9,9 C 12,1 C 7,9 km/h (2 Bft) 0,00 %
12.09.2014 12:00 13,6 C 79 % 1011,3 hPa 0,0 l/m 2,3 km/h (1 Bft) O-SO 0,00 h 0,000 mm 2,7 UV-I 277 W/m 10,1 C 13,6 C 3,0 km/h (1 Bft) 0,00 %
12.09.2014 13:00 13,9 C 74 % 1011,9 hPa 0,0 l/m 1,5 km/h (1 Bft) W-NW 0,00 h 0,000 mm 3,7 UV-I 183 W/m 9,4 C 13,9 C 6,9 km/h (2 Bft) 0,00 %
12.09.2014 14:00 15,2 C 70 % 1011,7 hPa 0,0 l/m 3,3 km/h (1 Bft) S-SW 0,25 h 0,000 mm 2,0 UV-I 392 W/m 9,7 C 15,1 C 2,0 km/h (1 Bft) 0,00 %
12.09.2014 15:00 14,9 C 70 % 1012,5 hPa 0,0 l/m 0,2 km/h (0 Bft) N 0,00 h 0,000 mm 1,0 UV-I 180 W/m 9,4 C 14,9 C 1,0 km/h (0 Bft) 0,00 %
12.09.2014 16:00 14,3 C 70 % 1012,9 hPa 0,0 l/m 0,1 km/h (0 Bft) N 0,00 h 0,000 mm 1,0 UV-I 97 W/m 8,9 C 14,3 C 1,0 km/h (0 Bft) 0,00 %
12.09.2014 17:00 13,9 C 73 % 1013,7 hPa 0,0 l/m 0,3 km/h (0 Bft) S-SW 0,00 h 0,000 mm 1,0 UV-I 59 W/m 9,1 C 13,9 C 0,0 km/h (0 Bft) 0,00 %
12.09.2014 18:00 13,7 C 74 % 1014,0 hPa 0,0 l/m 0,0 km/h (0 Bft) N 0,00 h 0,000 mm 0,0 UV-I 47 W/m 9,1 C 13,7 C 1,0 km/h (0 Bft) 0,00 %
12.09.2014 19:00 12,6 C 75 % 1014,7 hPa 0,0 l/m 0,1 km/h (0 Bft) N 0,00 h 0,000 mm 0,0 UV-I 0 W/m 8,1 C 12,6 C 0,0 km/h (0 Bft) 0,00 %
12.09.2014 20:00 12,1 C 82 % 1015,1 hPa 0,0 l/m 0,0 km/h (0 Bft) N 0,00 h 0,000 mm 0,0 UV-I 0 W/m 9,0 C 12,1 C 0,0 km/h (0 Bft) 0,00 %
12.09.2014 21:00 11,6 C 87 % 1015,5 hPa 0,0 l/m 0,0 km/h (0 Bft) N 0,00 h 0,000 mm 0,0 UV-I 0 W/m 9,4 C 11,6 C 0,0 km/h (0 Bft) 0,00 %
12.09.2014 22:00 11,4 C 87 % 1015,8 hPa 0,0 l/m 0,0 km/h (0 Bft) N 0,00 h 0,000 mm 0,0 UV-I 0 W/m 9,3 C 11,4 C 0,0 km/h (0 Bft) 0,00 %
12.09.2014 23:00 10,9 C 89 % 1016,3 hPa 0,0 l/m 0,0 km/h (0 Bft) N 0,00 h 0,000 mm 0,0 UV-I 0 W/m 9,1 C 10,9 C 0,0 km/h (0 Bft) 0,00 %
13.09.2014 00:00 10,5 C 89 % 1016,6 hPa 0,0 l/m 0,0 km/h (0 Bft) N 0,00 h 0,000 mm 0,0 UV-I 0 W/m 8,8 C 10,5 C 0,0 km/h (0 Bft) 0,00 %
13.09.2014 01:00 10,3 C 89 % 1016,8 hPa 0,0 l/m 0,0 km/h (0 Bft) N 0,00 h 0,000 mm 0,0 UV-I 0 W/m 8,6 C 10,3 C 0,0 km/h (0 Bft) 0,00 %
13.09.2014 02:00 10,4 C 87 % 1017,0 hPa 0,0 l/m 0,0 km/h (0 Bft) N 0,00 h 0,000 mm 0,0 UV-I 0 W/m 8,4 C 10,4 C 0,0 km/h (0 Bft) 0,00 %
13.09.2014 03:00 10,5 C 88 % 1016,8 hPa 0,0 l/m 0,0 km/h (0 Bft) N 0,00 h 0,000 mm 0,0 UV-I 0 W/m 8,6 C 10,5 C 0,0 km/h (0 Bft) 0,00 %
13.09.2014 04:00 10,3 C 88 % 1016,3 hPa 0,0 l/m 0,0 km/h (0 Bft) N 0,00 h 0,000 mm 0,0 UV-I 0 W/m 8,4 C 10,3 C 0,0 km/h (0 Bft) 0,00 %
13.09.2014 05:00 10,1 C 89 % 1016,1 hPa 0,0 l/m 0,1 km/h (0 Bft) N 0,00 h 0,000 mm 0,0 UV-I 0 W/m 8,4 C 10,1 C 2,0 km/h (1 Bft) 0,00 %
13.09.2014 06:00 10,2 C 89 % 1016,5 hPa 2,1 l/m 0,6 km/h (0 Bft) S-SW 0,00 h 0,000 mm 0,0 UV-I 0 W/m 8,5 C 10,2 C 2,0 km/h (1 Bft) 0,00 %
13.09.2014 07:00 10,1 C 92 % 1016,6 hPa 2,4 l/m 0,2 km/h (0 Bft) N 0,00 h 0,000 mm 1,0 UV-I 26 W/m 8,8 C 10,1 C 2,0 km/h (1 Bft) 0,00 %
13.09.2014 08:00 10,5 C 92 % 1016,7 hPa 0,3 l/m 0,3 km/h (0 Bft) N 0,00 h 0,000 mm 1,0 UV-I 37 W/m 9,3 C 10,5 C 3,0 km/h (1 Bft) 0,00 %
13.09.2014 09:00 10,7 C 92 % 1016,5 hPa 0,0 l/m 1,1 km/h (1 Bft) W-SW 0,00 h 0,000 mm 0,0 UV-I 60 W/m 9,4 C 10,7 C 3,0 km/h (1 Bft) 0,00 %
13.09.2014 10:00 10,7 C 91 % 1016,4 hPa 0,6 l/m 1,7 km/h (1 Bft) W-SW 0,00 h 0,000 mm 0,0 UV-I 40 W/m 9,3 C 10,7 C 5,0 km/h (1 Bft) 0,00 %
13.09.2014 11:00 10,7 C 92 % 1016,3 hPa 5,4 l/m 1,6 km/h (1 Bft) W-SW 0,00 h 0,000 mm 1,0 UV-I 258 W/m 9,5 C 10,7 C 4,0 km/h (1 Bft) 0,00 %
13.09.2014 12:00 10,9 C 93 % 1015,9 hPa 5,7 l/m 2,9 km/h (1 Bft) SW 0,00 h 0,000 mm 1,3 UV-I 218 W/m 9,7 C 10,8 C 4,0 km/h (1 Bft) 0,00 %
13.09.2014 13:00 11,3 C 92 % 1015,9 hPa 2,1 l/m 2,0 km/h (1 Bft) SW 0,00 h 0,000 mm 1,0 UV-I 213 W/m 10,0 C 11,3 C 4,0 km/h (1 Bft) 0,00 %
13.09.2014 14:00 11,4 C 92 % 1016,1 hPa 2,1 l/m 1,5 km/h (1 Bft) N 0,00 h 0,000 mm 1,0 UV-I 149 W/m 10,2 C 11,4 C 1,0 km/h (0 Bft) 0,00 %
13.09.2014 15:00 11,6 C 92 % 1016,2 hPa 0,9 l/m 1,0 km/h (0 Bft) SW 0,00 h 0,000 mm 1,0 UV-I 157 W/m 10,3 C 11,6 C 3,0 km/h (1 Bft) 0,00 %
13.09.2014 16:00 11,7 C 92 % 1016,3 hPa 0,3 l/m 2,2 km/h (1 Bft) S-SW 0,00 h 0,000 mm 0,0 UV-I 9 W/m 10,4 C 11,7 C 5,0 km/h (1 Bft) 0,00 %
13.09.2014 17:00 11,8 C 91 % 1016,5 hPa 2,1 l/m 0,8 km/h (0 Bft) N 0,00 h 0,000 mm 0,0 UV-I 18 W/m 10,3 C 11,8 C 2,0 km/h (1 Bft) 0,00 %
13.09.2014 18:00 11,5 C 91 % 1016,7 hPa 1,5 l/m 0,4 km/h (0 Bft) W-SW 0,00 h 0,000 mm 0,0 UV-I 0 W/m 10,1 C 11,5 C 3,0 km/h (1 Bft) 0,00 %
13.09.2014 19:00 11,5 C 91 % 1017,0 hPa 0,0 l/m 0,4 km/h (0 Bft) N 0,00 h 0,000 mm 0,0 UV-I 0 W/m 10,1 C 11,5 C 3,0 km/h (1 Bft) 0,00 %
13.09.2014 20:00 11,5 C 91 % 1017,4 hPa 0,3 l/m 0,4 km/h (0 Bft) N 0,00 h 0,000 mm 0,0 UV-I 0 W/m 10,1 C 11,5 C 2,0 km/h (1 Bft) 0,00 %
13.09.2014 21:00 11,7 C 91 % 1017,7 hPa 0,0 l/m 0,8 km/h (0 Bft) SW 0,00 h 0,000 mm 0,0 UV-I 0 W/m 10,2 C 11,7 C 1,0 km/h (0 Bft) 0,00 %
13.09.2014 22:00 11,8 C 91 % 1017,6 hPa 0,0 l/m 0,0 km/h (0 Bft) N 0,00 h 0,000 mm 0,0 UV-I 0 W/m 10,4 C 11,8 C 1,0 km/h (0 Bft) 0,00 %
13.09.2014 23:00 11,9 C 91 % 1017,6 hPa 0,0 l/m 0,1 km/h (0 Bft) N 0,00 h 0,000 mm 0,0 UV-I 0 W/m 10,4 C 11,9 C 0,0 km/h (0 Bft) 0,00 %
14.09.2014 00:00 11,8 C 91 % 1017,3 hPa 0,0 l/m 0,1 km/h (0 Bft) N 0,00 h 0,000 mm 0,0 UV-I 0 W/m 10,4 C 11,8 C 1,0 km/h (0 Bft) 0,00 %
14.09.2014 01:00 11,8 C 91 % 1017,4 hPa 0,0 l/m 0,0 km/h (0 Bft) N 0,00 h 0,000 mm 0,0 UV-I 0 W/m 10,4 C 11,8 C 0,0 km/h (0 Bft) 0,00 %
14.09.2014 02:00 11,8 C 91 % 1017,3 hPa 0,0 l/m 0,0 km/h (0 Bft) N 0,00 h 0,000 mm 0,0 UV-I 0 W/m 10,3 C 11,8 C 0,0 km/h (0 Bft) 0,00 %
14.09.2014 03:00 11,6 C 92 % 1016,9 hPa 0,9 l/m 0,0 km/h (0 Bft) N 0,00 h 0,000 mm 0,0 UV-I 0 W/m 10,4 C 11,6 C 0,0 km/h (0 Bft) 0,00 %
14.09.2014 04:00 11,5 C 92 % 1016,4 hPa 0,6 l/m 0,0 km/h (0 Bft) N 0,00 h 0,000 mm 0,0 UV-I 0 W/m 10,3 C 11,5 C 0,0 km/h (0 Bft) 0,00 %
14.09.2014 05:00 11,4 C 93 % 1016,0 hPa 0,3 l/m 0,3 km/h (0 Bft) W-SW 0,00 h 0,000 mm 0,0 UV-I 0 W/m 10,3 C 11,4 C 1,0 km/h (0 Bft) 0,00 %
14.09.2014 06:00 11,4 C 92 % 1015,7 hPa 2,7 l/m 0,0 km/h (0 Bft) N 0,00 h 0,000 mm 0,0 UV-I 0 W/m 10,1 C 11,4 C 0,0 km/h (0 Bft) 0,00 %
14.09.2014 07:00 11,5 C 92 % 1015,4 hPa 0,6 l/m 0,0 km/h (0 Bft) N 0,00 h 0,000 mm 1,0 UV-I 0 W/m 10,2 C 11,5 C 0,0 km/h (0 Bft) 0,00 %
14.09.2014 08:00 11,7 C 92 % 1015,3 hPa 2,1 l/m 0,0 km/h (0 Bft) N 0,00 h 0,000 mm 1,0 UV-I 39 W/m 10,4 C 11,7 C 0,0 km/h (0 Bft) 0,00 %
14.09.2014 09:00 12,0 C 92 % 1015,1 hPa 4,2 l/m 0,6 km/h (0 Bft) W-SW 0,00 h 0,000 mm 1,0 UV-I 60 W/m 10,7 C 12,0 C 3,0 km/h (1 Bft) 0,00 %
14.09.2014 10:00 12,1 C 92 % 1015,1 hPa 3,0 l/m 0,4 km/h (0 Bft) N 0,00 h 0,000 mm 1,0 UV-I 59 W/m 10,9 C 12,1 C 2,0 km/h (1 Bft) 0,00 %
14.09.2014 11:00 12,6 C 92 % 1015,0 hPa 1,2 l/m 0,3 km/h (0 Bft) W-SW 0,00 h 0,000 mm 1,7 UV-I 120 W/m 11,3 C 12,6 C 2,0 km/h (1 Bft) 0,00 %
14.09.2014 12:00 13,5 C 90 % 1014,6 hPa 0,0 l/m 1,3 km/h (1 Bft) SW 0,00 h 0,000 mm 1,7 UV-I 179 W/m 11,8 C 13,5 C 3,0 km/h (1 Bft) 0,00 %
14.09.2014 13:00 13,9 C 88 % 1014,8 hPa 0,0 l/m 0,2 km/h (0 Bft) N 0,00 h 0,000 mm 2,3 UV-I 139 W/m 11,9 C 13,9 C 1,0 km/h (0 Bft) 0,00 %
14.09.2014 14:00 14,5 C 86 % 1014,4 hPa 0,0 l/m 0,1 km/h (0 Bft) N 0,00 h 0,000 mm 1,0 UV-I 206 W/m 12,2 C 14,5 C 1,0 km/h (0 Bft) 0,00 %
14.09.2014 15:00 14,2 C 88 % 1014,4 hPa 0,0 l/m 0,2 km/h (0 Bft) N 0,00 h 0,000 mm 1,0 UV-I 91 W/m 12,2 C 14,2 C 2,0 km/h (1 Bft) 0,00 %
14.09.2014 16:00 14,2 C 89 % 1014,7 hPa 0,0 l/m 0,3 km/h (0 Bft) N 0,00 h 0,000 mm 1,0 UV-I 80 W/m 12,3 C 14,2 C 2,0 km/h (1 Bft) 0,00 %
14.09.2014 17:00 14,9 C 86 % 1014,5 hPa 0,0 l/m 0,0 km/h (0 Bft) N 0,00 h 0,000 mm 1,0 UV-I 125 W/m 12,5 C 14,9 C 0,0 km/h (0 Bft) 0,00 %
14.09.2014 18:00 14,4 C 87 % 1014,6 hPa 0,0 l/m 0,0 km/h (0 Bft) N 0,00 h 0,000 mm 0,0 UV-I 38 W/m 12,3 C 14,4 C 0,0 km/h (0 Bft) 0,00 %
14.09.2014 19:00 13,9 C 89 % 1015,1 hPa 0,0 l/m 0,0 km/h (0 Bft) N 0,00 h 0,000 mm 0,0 UV-I 0 W/m 12,1 C 13,9 C 0,0 km/h (0 Bft) 0,00 %
14.09.2014 20:00 13,6 C 90 % 1015,4 hPa 0,0 l/m 0,0 km/h (0 Bft) N 0,00 h 0,000 mm 0,0 UV-I 0 W/m 12,0 C 13,6 C 0,0 km/h (0 Bft) 0,00 %
14.09.2014 21:00 13,1 C 92 % 1015,6 hPa 0,0 l/m 0,0 km/h (0 Bft) N 0,00 h 0,000 mm 0,0 UV-I 0 W/m 11,7 C 13,1 C 0,0 km/h (0 Bft) 0,00 %
14.09.2014 22:00 11,8 C 92 % 1015,7 hPa 0,0 l/m 0,0 km/h (0 Bft) N 0,00 h 0,000 mm 0,0 UV-I 0 W/m 10,6 C 11,8 C 0,0 km/h (0 Bft) 0,00 %
14.09.2014 23:00 10,9 C 94 % 1015,7 hPa 0,0 l/m 0,0 km/h (0 Bft) N 0,00 h 0,000 mm 0,0 UV-I 0 W/m 9,9 C 10,9 C 0,0 km/h (0 Bft) 0,00 %
Min-Datum _ 13.09.14 08.09.14 10.09.14 - 08.09.14 - - - - - 12.09.14 12.09.14 08.09.14 08.09.14
_ Min-Zeit 01:45 17:45 15:45 - 00:15 - - - - - 19:30 10:15 00:15 00:15
Minimum _ 10,1 C 40 % 1009,2 hPa - 0,0 km/h (0 Bft) - - - - - 8,0 C 10,0 C 0,0 km/h (0 Bft) 0,00 %
Max-Datum _ 08.09.14 08.09.14 13.09.14 13.09.14 12.09.14 - 08.09.14 08.09.14 08.09.14 08.09.14 08.09.14 08.09.14 12.09.14 08.09.14
_ Max-Zeit 15:15 04:15 20:45 12:00 10:15 - 07:00 00:15 12:30 14:45 13:15 15:15 02:15 00:15
Maximum _ 28,0 C 99 % 1017,8 hPa 5,7 l/m 8,3 km/h
O (2 Bft)
- 0,25 h 0,000 mm 7,0 UV-I 756 W/m 17,7 C 28,0 C 11,9 km/h
W-SW (2 Bft)
0,00 %
Durchschnitt _ 14,6 C 83 % 1013,4 hPa #57,0 l/m 0,4 km/h (0 Bft) W-SW #18:45 h #0,000 mm 2,1 UV-I 195 W/m 11,6 C 14,6 C 1,3 km/h (1 Bft) 0,00 %